createdAt,value
2023-03-10T00:00:42.482Z,98542.91
2023-03-10T00:03:10.223Z,98533.56
2023-03-10T00:05:38.875Z,98530.16
2023-03-10T00:08:07.371Z,98517.56
2023-03-10T00:10:35.045Z,98518.31
2023-03-10T00:13:02.711Z,98514.28
2023-03-10T00:15:31.606Z,98505.34
2023-03-10T00:18:00.677Z,98488.50
2023-03-10T00:20:28.422Z,98486.50
2023-03-10T00:22:56.130Z,98480.97
2023-03-10T00:25:24.012Z,98476.50
2023-03-10T00:27:52.534Z,98467.28
2023-03-10T00:30:20.443Z,98463.59
2023-03-10T00:32:48.101Z,98457.69
2023-03-10T00:35:17.283Z,98444.13
2023-03-10T00:37:44.956Z,98451.03
2023-03-10T00:40:14.332Z,98443.88
2023-03-10T00:42:42.651Z,98439.75
2023-03-10T00:45:11.094Z,98439.75
2023-03-10T00:47:38.820Z,98428.41
2023-03-10T00:50:07.190Z,98425.31
2023-03-10T00:52:36.233Z,98414.03
2023-03-10T00:55:04.419Z,98415.69
2023-03-10T00:57:32.145Z,98429.16
2023-03-10T00:59:59.776Z,98414.81
2023-03-10T01:02:29.054Z,98401.88
2023-03-10T01:04:56.768Z,98400.88
2023-03-10T01:07:24.551Z,98399.19
2023-03-10T01:09:53.513Z,98391.44
2023-03-10T01:12:21.818Z,98378.84
2023-03-10T01:14:49.474Z,98369.19
2023-03-10T01:17:17.159Z,98369.59
2023-03-10T01:19:45.021Z,98364.00
2023-03-10T01:22:12.729Z,98357.66
2023-03-10T01:24:40.463Z,98347.22
2023-03-10T01:27:09.596Z,98332.19
2023-03-10T01:29:37.209Z,98333.00
2023-03-10T01:32:05.113Z,98327.28
2023-03-10T01:34:32.925Z,98320.31
2023-03-10T01:37:00.708Z,98312.88
2023-03-10T01:39:28.318Z,98303.28
2023-03-10T01:41:56.034Z,98299.75
2023-03-10T01:44:25.014Z,98297.09
2023-03-10T01:46:54.305Z,98282.31
2023-03-10T01:49:34.166Z,98281.31
2023-03-10T01:52:06.309Z,98267.72
2023-03-10T01:54:41.819Z,98265.28
2023-03-10T01:57:10.152Z,98254.63
2023-03-10T01:59:41.506Z,98254.19
2023-03-10T02:02:10.444Z,98247.63
2023-03-10T02:04:43.634Z,98251.94
2023-03-10T02:07:12.960Z,98244.78
2023-03-10T02:09:45.013Z,98233.91
2023-03-10T02:12:15.087Z,98224.66
2023-03-10T02:14:45.734Z,98225.88
2023-03-10T02:17:17.910Z,98217.06
2023-03-10T02:20:03.252Z,98213.56
2023-03-10T02:22:32.766Z,98217.44
2023-03-10T02:25:08.525Z,98202.84
2023-03-10T02:27:39.222Z,98189.28
2023-03-10T02:30:10.438Z,98184.38
2023-03-10T02:32:43.019Z,98178.00
2023-03-10T02:35:12.365Z,98179.84
2023-03-10T02:37:40.389Z,98166.91
2023-03-10T02:40:29.677Z,98164.63
2023-03-10T02:42:59.918Z,98158.66
2023-03-10T02:45:30.190Z,98153.75
2023-03-10T02:47:59.108Z,98153.16
2023-03-10T02:50:30.477Z,98144.94
2023-03-10T02:53:04.484Z,98134.28
2023-03-10T02:55:32.179Z,98138.19
2023-03-10T02:58:02.443Z,98138.34
2023-03-10T03:00:30.560Z,98129.94
2023-03-10T03:02:58.391Z,98113.47
2023-03-10T03:05:28.562Z,98106.28
2023-03-10T03:07:56.446Z,98105.41
2023-03-10T03:10:24.466Z,98091.44
2023-03-10T03:12:52.534Z,98087.78
2023-03-10T03:15:21.757Z,98080.84
2023-03-10T03:17:49.507Z,98071.94
2023-03-10T03:20:18.155Z,98073.78
2023-03-10T03:22:46.787Z,98074.78
2023-03-10T03:25:17.459Z,98069.22
2023-03-10T03:27:45.771Z,98059.16
2023-03-10T03:30:17.471Z,98059.38
2023-03-10T03:32:47.036Z,98056.50
2023-03-10T03:35:16.908Z,98047.06
2023-03-10T03:37:45.092Z,98044.41
2023-03-10T03:40:14.758Z,98031.25
2023-03-10T03:42:43.717Z,98018.31
2023-03-10T03:45:13.567Z,98029.84
2023-03-10T03:47:41.787Z,98016.47
2023-03-10T03:50:13.096Z,98015.66
2023-03-10T03:52:41.215Z,98021.22
2023-03-10T03:55:10.440Z,98020.41
2023-03-10T03:57:38.472Z,98017.06
2023-03-10T04:00:08.797Z,98012.19
2023-03-10T04:02:36.965Z,98018.53
2023-03-10T04:05:05.643Z,98015.50
2023-03-10T04:07:35.363Z,98008.91
2023-03-10T04:10:03.139Z,98013.00
2023-03-10T04:12:31.352Z,98012.41
2023-03-10T04:14:59.259Z,98001.13
2023-03-10T04:17:27.055Z,98002.78
2023-03-10T04:20:06.650Z,98004.81
2023-03-10T04:22:39.514Z,98010.34
2023-03-10T04:25:08.507Z,98020.84
2023-03-10T04:27:36.568Z,98020.88
2023-03-10T04:30:05.190Z,98008.94
2023-03-10T04:32:33.263Z,98000.75
2023-03-10T04:35:02.076Z,98003.38
2023-03-10T04:37:29.890Z,98009.75
2023-03-10T04:39:59.187Z,98011.38
2023-03-10T04:42:28.117Z,97994.75
2023-03-10T04:44:55.906Z,97994.94
2023-03-10T04:47:23.559Z,98018.00
2023-03-10T04:49:51.429Z,98023.28
2023-03-10T04:52:19.193Z,97997.34
2023-03-10T04:54:46.892Z,98017.06
2023-03-10T04:57:16.259Z,98042.38
2023-03-10T04:59:43.879Z,98025.53
2023-03-10T05:02:11.683Z,98027.41
2023-03-10T05:04:39.504Z,98034.78
2023-03-10T05:07:08.365Z,98037.41
2023-03-10T05:09:37.702Z,98054.25
2023-03-10T05:12:06.611Z,98041.47
2023-03-10T05:14:35.644Z,98035.88
2023-03-10T05:17:03.893Z,98049.44
2023-03-10T05:19:31.644Z,98045.91
2023-03-10T05:21:59.534Z,98053.13
2023-03-10T05:24:27.315Z,98049.03
2023-03-10T05:26:55.071Z,98059.75
2023-03-10T05:29:22.964Z,98063.44
2023-03-10T05:31:51.924Z,98064.69
2023-03-10T05:34:19.630Z,98056.47
2023-03-10T05:36:47.379Z,98070.25
2023-03-10T05:39:15.275Z,98068.00
2023-03-10T05:41:43.363Z,98062.28
2023-03-10T05:44:11.252Z,98066.78
2023-03-10T05:46:39.180Z,98071.91
2023-03-10T05:49:08.289Z,98078.09
2023-03-10T05:51:36.123Z,98073.53
2023-03-10T05:54:08.244Z,98087.53
2023-03-10T05:56:38.392Z,98092.69
2023-03-10T05:59:07.833Z,98083.22
2023-03-10T06:01:36.351Z,98080.78
2023-03-10T06:04:04.455Z,98085.28
2023-03-10T06:06:33.613Z,98091.47
2023-03-10T06:09:01.723Z,98087.38
2023-03-10T06:11:30.532Z,98096.81
2023-03-10T06:13:58.173Z,98098.63
2023-03-10T06:16:27.250Z,98097.59
2023-03-10T06:18:56.236Z,98098.84
2023-03-10T06:21:25.100Z,98113.03
2023-03-10T06:23:54.161Z,98108.31
2023-03-10T06:26:22.789Z,98105.84
2023-03-10T06:28:50.550Z,98120.41
2023-03-10T06:31:21.497Z,98123.50
2023-03-10T06:33:49.397Z,98127.84
2023-03-10T06:36:20.640Z,98123.75
2023-03-10T06:38:48.799Z,98134.22
2023-03-10T06:41:18.381Z,98140.38
2023-03-10T06:43:46.068Z,98142.63
2023-03-10T06:46:14.614Z,98141.59
2023-03-10T06:48:43.742Z,98144.50
2023-03-10T06:51:14.076Z,98147.56
2023-03-10T06:53:42.110Z,98153.13
2023-03-10T06:56:12.973Z,98153.13
2023-03-10T06:58:42.822Z,98150.03
2023-03-10T07:01:22.148Z,98158.25
2023-03-10T07:03:50.310Z,98161.13
2023-03-10T07:06:20.747Z,98162.13
2023-03-10T07:08:49.013Z,98165.22
2023-03-10T07:11:17.073Z,98165.22
2023-03-10T07:13:46.009Z,98167.50
2023-03-10T07:16:13.754Z,98169.53
2023-03-10T07:18:42.666Z,98173.66
2023-03-10T07:21:11.457Z,98165.84
2023-03-10T07:23:40.286Z,98168.94
2023-03-10T07:26:09.029Z,98168.28
2023-03-10T07:28:38.597Z,98181.00
2023-03-10T07:31:10.988Z,98184.69
2023-03-10T07:33:39.074Z,98186.56
2023-03-10T07:36:08.431Z,98190.25
2023-03-10T07:38:36.205Z,98182.25
2023-03-10T07:41:07.568Z,98189.00
2023-03-10T07:43:35.569Z,98181.38
2023-03-10T07:46:07.401Z,98189.75
2023-03-10T07:48:36.325Z,98201.47
2023-03-10T07:51:04.302Z,98206.84
2023-03-10T07:53:33.133Z,98202.78
2023-03-10T07:56:00.974Z,98207.09
2023-03-10T07:58:28.652Z,98209.16
2023-03-10T08:00:57.085Z,98205.66
2023-03-10T08:03:26.974Z,98213.06
2023-03-10T08:05:54.872Z,98213.50
2023-03-10T08:08:23.119Z,98222.13
2023-03-10T08:10:50.814Z,98211.66
2023-03-10T08:13:18.515Z,98213.91
2023-03-10T08:15:46.176Z,98224.59
2023-03-10T08:18:13.914Z,98233.25
2023-03-10T08:20:43.242Z,98246.16
2023-03-10T08:23:10.956Z,98254.59
2023-03-10T08:25:39.041Z,98252.94
2023-03-10T08:28:06.845Z,98260.38
2023-03-10T08:30:35.376Z,98263.84
2023-03-10T08:33:03.080Z,98249.63
2023-03-10T08:35:30.777Z,98244.28
2023-03-10T08:37:59.745Z,98237.50
2023-03-10T08:40:28.431Z,98224.34
2023-03-10T08:42:56.100Z,98238.09
2023-03-10T08:45:24.057Z,98237.91
2023-03-10T08:47:52.072Z,98230.72
2023-03-10T08:50:19.885Z,98238.28
2023-03-10T08:52:47.716Z,98241.13
2023-03-10T08:55:19.436Z,98239.63
2023-03-10T08:57:47.431Z,98246.03
2023-03-10T09:00:17.438Z,98241.34
2023-03-10T09:02:45.361Z,98250.03
2023-03-10T09:05:13.032Z,98250.03
2023-03-10T09:07:41.384Z,98261.75
2023-03-10T09:10:11.360Z,98260.53
2023-03-10T09:12:43.157Z,98252.91
2023-03-10T09:15:12.693Z,98249.63
2023-03-10T09:17:41.118Z,98251.66
2023-03-10T09:20:10.671Z,98258.19
2023-03-10T09:22:39.190Z,98252.22
2023-03-10T09:25:07.519Z,98254.66
2023-03-10T09:27:35.198Z,98266.75
2023-03-10T09:30:07.077Z,98253.13
2023-03-10T09:32:34.767Z,98249.25
2023-03-10T09:35:02.407Z,98252.38
2023-03-10T09:37:30.153Z,98257.75
2023-03-10T09:39:57.737Z,98258.19
2023-03-10T09:42:41.261Z,98249.16
2023-03-10T09:45:22.574Z,98250.41
2023-03-10T09:48:00.219Z,98253.28
2023-03-10T09:50:34.875Z,98263.53
2023-03-10T09:53:08.816Z,98258.34
2023-03-10T09:55:47.494Z,98248.44
2023-03-10T09:58:22.079Z,98254.16
2023-03-10T10:00:51.188Z,98260.28
2023-03-10T10:03:22.431Z,98267.53
2023-03-10T10:05:53.190Z,98260.13
2023-03-10T10:08:25.219Z,98262.22
2023-03-10T10:10:55.877Z,98256.84
2023-03-10T10:13:26.363Z,98260.13
2023-03-10T10:16:21.405Z,98266.09
2023-03-10T10:18:58.766Z,98270.44
2023-03-10T10:21:42.366Z,98280.72
2023-03-10T10:24:11.276Z,98283.00
2023-03-10T10:26:40.296Z,98281.34
2023-03-10T10:29:16.455Z,98286.50
2023-03-10T10:32:03.269Z,98285.66
2023-03-10T10:34:32.117Z,98286.66
2023-03-10T10:37:01.060Z,98279.88
2023-03-10T10:39:32.916Z,98292.25
2023-03-10T10:42:13.979Z,98280.31
2023-03-10T10:44:43.230Z,98284.84
2023-03-10T10:47:27.325Z,98283.84
2023-03-10T10:49:56.520Z,98290.25
2023-03-10T10:52:26.634Z,98292.28
2023-03-10T10:54:58.734Z,98297.22
2023-03-10T10:57:31.277Z,98288.34
2023-03-10T11:00:18.356Z,98283.81
2023-03-10T11:02:47.497Z,98284.41
2023-03-10T11:05:17.226Z,98286.47
2023-03-10T11:07:45.172Z,98279.88
2023-03-10T11:10:15.793Z,98279.47
2023-03-10T11:12:57.542Z,98278.03
2023-03-10T11:15:31.600Z,98281.47
2023-03-10T11:18:07.405Z,98276.31
2023-03-10T11:20:52.364Z,98282.53
2023-03-10T11:23:25.542Z,98281.09
2023-03-10T11:26:00.095Z,98272.84
2023-03-10T11:28:41.757Z,98283.56
2023-03-10T11:31:21.699Z,98279.19
2023-03-10T11:33:57.587Z,98276.97
2023-03-10T11:36:43.283Z,98263.84
2023-03-10T11:39:25.588Z,98272.50
2023-03-10T11:42:00.386Z,98271.28
2023-03-10T11:44:36.278Z,98280.38
2023-03-10T11:47:09.601Z,98278.91
2023-03-10T11:49:43.556Z,98269.22
2023-03-10T11:52:14.770Z,98255.03
2023-03-10T11:54:46.080Z,98253.34
2023-03-10T11:57:17.984Z,98247.59
2023-03-10T11:59:50.633Z,98248.41
2023-03-10T12:02:25.046Z,98245.28
2023-03-10T12:05:00.063Z,98245.28
2023-03-10T12:07:34.197Z,98252.28
2023-03-10T12:10:05.070Z,98243.22
2023-03-10T12:12:37.093Z,98247.34
2023-03-10T12:15:12.402Z,98253.47
2023-03-10T12:17:41.687Z,98256.78
2023-03-10T12:20:25.680Z,98258.47
2023-03-10T12:22:54.547Z,98258.28
2023-03-10T12:25:43.841Z,98257.03
2023-03-10T12:28:24.214Z,98259.50
2023-03-10T12:30:56.421Z,98269.16
2023-03-10T12:33:47.519Z,98267.88
2023-03-10T12:36:27.237Z,98269.88
2023-03-10T12:38:57.481Z,98267.81
2023-03-10T12:41:49.438Z,98259.56
2023-03-10T12:44:38.831Z,98274.16
2023-03-10T12:47:32.219Z,98272.03
2023-03-10T12:50:08.095Z,98267.59
2023-03-10T12:52:51.241Z,98267.00
2023-03-10T12:55:22.499Z,98265.56
2023-03-10T12:57:57.609Z,98260.94
2023-03-10T13:00:40.584Z,98264.25
2023-03-10T13:03:19.437Z,98255.97
2023-03-10T13:06:06.851Z,98253.94
2023-03-10T13:08:43.403Z,98258.88
2023-03-10T13:11:27.549Z,98259.31
2023-03-10T13:13:59.353Z,98248.81
2023-03-10T13:16:27.054Z,98244.22
2023-03-10T13:18:56.681Z,98245.28
2023-03-10T13:21:29.480Z,98252.84
2023-03-10T13:23:59.288Z,98245.78
2023-03-10T13:26:28.513Z,98234.00
2023-03-10T13:28:58.522Z,98242.03
2023-03-10T13:31:28.502Z,98242.88
2023-03-10T13:33:57.761Z,98235.88
2023-03-10T13:36:33.971Z,98229.66
2023-03-10T13:39:05.693Z,98229.25
2023-03-10T13:41:37.360Z,98242.31
2023-03-10T13:44:06.647Z,98229.69
2023-03-10T13:46:35.416Z,98238.25
2023-03-10T13:49:06.887Z,98242.56
2023-03-10T13:51:36.717Z,98236.31
2023-03-10T13:54:21.546Z,98247.88
2023-03-10T13:56:51.842Z,98235.28
2023-03-10T13:59:23.851Z,98235.28
2023-03-10T14:01:55.361Z,98240.47
2023-03-10T14:04:45.249Z,98240.47
2023-03-10T14:07:18.123Z,98243.34
2023-03-10T14:09:49.076Z,98244.53
2023-03-10T14:12:37.258Z,98254.38
2023-03-10T14:15:21.542Z,98251.25
2023-03-10T14:17:50.835Z,98252.34
2023-03-10T14:20:27.314Z,98241.91
2023-03-10T14:22:55.006Z,98242.56
2023-03-10T14:25:25.770Z,98240.56
2023-03-10T14:27:56.901Z,98237.72
2023-03-10T14:30:30.280Z,98244.31
2023-03-10T14:32:59.976Z,98245.56
2023-03-10T14:35:30.184Z,98239.81
2023-03-10T14:37:59.758Z,98243.91
2023-03-10T14:40:28.982Z,98224.38
2023-03-10T14:43:00.327Z,98216.88
2023-03-10T14:45:31.184Z,98237.44
2023-03-10T14:48:01.441Z,98227.31
2023-03-10T14:50:30.406Z,98231.63
2023-03-10T14:52:58.147Z,98216.59
2023-03-10T14:55:26.014Z,98216.84
2023-03-10T14:57:59.595Z,98213.34
2023-03-10T15:00:30.933Z,98229.84
2023-03-10T15:02:58.876Z,98229.09
2023-03-10T15:05:45.077Z,98225.59
2023-03-10T15:08:15.346Z,98229.69
2023-03-10T15:10:46.728Z,98226.81
2023-03-10T15:13:18.227Z,98222.44
2023-03-10T15:15:47.745Z,98222.38
2023-03-10T15:18:17.975Z,98222.31
2023-03-10T15:20:45.994Z,98212.59
2023-03-10T15:23:17.566Z,98215.28
2023-03-10T15:25:46.916Z,98212.81
2023-03-10T15:28:16.164Z,98214.06
2023-03-10T15:30:43.822Z,98207.69
2023-03-10T15:33:11.646Z,98198.53
2023-03-10T15:35:40.524Z,98196.72
2023-03-10T15:38:08.868Z,98212.53
2023-03-10T15:40:38.705Z,98214.41
2023-03-10T15:43:06.462Z,98212.09
2023-03-10T15:45:40.750Z,98200.59
2023-03-10T15:48:08.730Z,98208.78
2023-03-10T15:50:36.699Z,98202.22
2023-03-10T15:53:04.699Z,98208.81
2023-03-10T15:55:32.499Z,98201.31
2023-03-10T15:58:02.246Z,98199.03
2023-03-10T16:00:30.044Z,98208.88
2023-03-10T16:02:59.039Z,98217.84
2023-03-10T16:05:28.997Z,98201.97
2023-03-10T16:07:59.271Z,98193.75
2023-03-10T16:10:26.950Z,98184.91
2023-03-10T16:12:54.639Z,98194.78
2023-03-10T16:15:22.272Z,98190.78
2023-03-10T16:17:49.889Z,98185.13
2023-03-10T16:20:19.446Z,98185.63
2023-03-10T16:22:47.279Z,98173.72
2023-03-10T16:25:16.899Z,98176.94
2023-03-10T16:27:46.559Z,98181.09
2023-03-10T16:30:16.804Z,98180.94
2023-03-10T16:32:45.953Z,98178.25
2023-03-10T16:35:14.033Z,98180.06
2023-03-10T16:37:43.451Z,98181.13
2023-03-10T16:40:12.355Z,98177.50
2023-03-10T16:42:43.340Z,98172.13
2023-03-10T16:45:12.054Z,98182.34
2023-03-10T16:47:41.022Z,98185.25
2023-03-10T16:50:12.633Z,98185.13
2023-03-10T16:52:42.150Z,98191.69
2023-03-10T16:55:16.916Z,98179.72
2023-03-10T16:57:48.526Z,98172.94
2023-03-10T17:00:20.982Z,98185.50
2023-03-10T17:02:48.889Z,98186.22
2023-03-10T17:05:17.223Z,98208.34
2023-03-10T17:07:55.104Z,98220.09
2023-03-10T17:10:26.653Z,98232.66
2023-03-10T17:12:54.389Z,98223.38
2023-03-10T17:15:22.045Z,98214.59
2023-03-10T17:17:49.664Z,98219.59
2023-03-10T17:20:19.347Z,98235.88
2023-03-10T17:22:48.335Z,98230.09
2023-03-10T17:25:16.002Z,98241.38
2023-03-10T17:27:45.185Z,98238.41
2023-03-10T17:30:15.600Z,98240.31
2023-03-10T17:32:43.579Z,98236.69
2023-03-10T17:35:11.355Z,98240.22
2023-03-10T17:37:39.039Z,98234.66
2023-03-10T17:40:09.373Z,98224.25
2023-03-10T17:42:37.210Z,98228.38
2023-03-10T17:45:07.671Z,98219.59
2023-03-10T17:47:35.510Z,98222.88
2023-03-10T17:50:03.201Z,98222.16
2023-03-10T17:52:31.032Z,98219.50
2023-03-10T17:54:58.666Z,98219.50
2023-03-10T17:57:26.342Z,98209.22
2023-03-10T17:59:53.997Z,98205.09
2023-03-10T18:02:23.079Z,98211.06
2023-03-10T18:04:50.729Z,98201.63
2023-03-10T18:07:18.326Z,98195.94
2023-03-10T18:09:45.989Z,98197.38
2023-03-10T18:12:13.620Z,98193.28
2023-03-10T18:14:41.308Z,98187.13
2023-03-10T18:17:09.181Z,98188.78
2023-03-10T18:19:38.621Z,98177.91
2023-03-10T18:22:08.032Z,98169.69
2023-03-10T18:24:35.810Z,98170.97
2023-03-10T18:27:04.326Z,98171.59
2023-03-10T18:29:31.932Z,98170.97
2023-03-10T18:31:59.655Z,98172.22
2023-03-10T18:34:27.941Z,98167.91
2023-03-10T18:36:57.545Z,98170.75
2023-03-10T18:39:25.782Z,98170.97
2023-03-10T18:41:54.709Z,98171.59
2023-03-10T18:44:23.096Z,98171.16
2023-03-10T18:46:50.990Z,98165.25
2023-03-10T18:49:18.711Z,98170.41
2023-03-10T18:51:46.460Z,98171.22
2023-03-10T18:54:15.352Z,98175.31
2023-03-10T18:56:43.073Z,98178.22
2023-03-10T18:59:11.195Z,98188.28
2023-03-10T19:01:39.221Z,98193.41
2023-03-10T19:04:06.979Z,98191.78
2023-03-10T19:06:35.388Z,98207.19
2023-03-10T19:09:03.993Z,98209.66
2023-03-10T19:11:37.898Z,98211.69
2023-03-10T19:14:07.452Z,98221.34
2023-03-10T19:16:36.659Z,98238.22
2023-03-10T19:19:04.428Z,98247.03
2023-03-10T19:21:32.227Z,98262.25
2023-03-10T19:23:59.862Z,98272.31
2023-03-10T19:26:27.626Z,98292.84
2023-03-10T19:28:56.636Z,98305.38
2023-03-10T19:31:25.563Z,98314.44
2023-03-10T19:33:53.995Z,98325.72
2023-03-10T19:36:21.744Z,98333.97
2023-03-10T19:38:49.962Z,98337.25
2023-03-10T19:41:21.891Z,98358.16
2023-03-10T19:43:50.626Z,98363.09
2023-03-10T19:46:20.451Z,98362.66
2023-03-10T19:48:48.649Z,98376.63
2023-03-10T19:51:21.935Z,98388.13
2023-03-10T19:53:51.069Z,98409.88
2023-03-10T19:56:19.541Z,98407.59
2023-03-10T19:58:48.482Z,98426.69
2023-03-10T20:01:18.255Z,98432.47
2023-03-10T20:03:47.591Z,98445.56
2023-03-10T20:06:15.373Z,98461.19
2023-03-10T20:08:43.536Z,98470.38
2023-03-10T20:11:13.493Z,98483.66
2023-03-10T20:13:43.206Z,98491.06
2023-03-10T20:16:13.988Z,98503.34
2023-03-10T20:18:42.208Z,98509.06
2023-03-10T20:21:11.494Z,98517.06
2023-03-10T20:23:39.447Z,98531.59
2023-03-10T20:26:08.828Z,98539.53
2023-03-10T20:28:39.285Z,98545.28
2023-03-10T20:31:06.941Z,98553.63
2023-03-10T20:33:35.486Z,98564.59
2023-03-10T20:36:03.188Z,98574.66
2023-03-10T20:38:32.203Z,98586.75
2023-03-10T20:40:59.816Z,98600.72
2023-03-10T20:43:28.118Z,98613.59
2023-03-10T20:45:55.817Z,98622.09
2023-03-10T20:48:23.652Z,98629.72
2023-03-10T20:50:55.042Z,98632.66
2023-03-10T20:53:23.986Z,98645.34
2023-03-10T20:55:53.350Z,98654.13
2023-03-10T20:58:21.852Z,98655.97
2023-03-10T21:00:49.783Z,98673.06
2023-03-10T21:03:22.790Z,98682.91
2023-03-10T21:05:50.938Z,98688.59
2023-03-10T21:08:19.413Z,98700.84
2023-03-10T21:10:49.242Z,98713.44
2023-03-10T21:13:18.628Z,98719.59
2023-03-10T21:15:46.292Z,98738.78
2023-03-10T21:18:13.936Z,98741.47
2023-03-10T21:20:45.419Z,98744.13
2023-03-10T21:23:13.301Z,98752.78
2023-03-10T21:25:41.400Z,98773.19
2023-03-10T21:28:09.509Z,98767.19
2023-03-10T21:30:38.751Z,98783.75
2023-03-10T21:33:06.479Z,98800.09
2023-03-10T21:35:37.075Z,98811.41
2023-03-10T21:38:05.435Z,98820.88
2023-03-10T21:40:33.279Z,98827.59
2023-03-10T21:43:02.752Z,98837.44
2023-03-10T21:45:33.348Z,98846.81
2023-03-10T21:48:03.958Z,98851.09
2023-03-10T21:50:31.830Z,98858.09
2023-03-10T21:52:59.754Z,98872.88
2023-03-10T21:55:29.335Z,98875.44
2023-03-10T21:57:56.962Z,98892.81
2023-03-10T22:00:24.801Z,98896.75
2023-03-10T22:02:53.779Z,98907.13
2023-03-10T22:05:23.120Z,98911.63
2023-03-10T22:07:51.623Z,98921.44
2023-03-10T22:10:19.572Z,98923.75
2023-03-10T22:12:51.255Z,98933.78
2023-03-10T22:15:21.957Z,98945.94
2023-03-10T22:17:50.263Z,98961.25
2023-03-10T22:20:20.593Z,98968.34
2023-03-10T22:22:49.851Z,98977.00
2023-03-10T22:25:18.445Z,98988.38
2023-03-10T22:27:49.963Z,99003.50
2023-03-10T22:30:18.568Z,99005.47
2023-03-10T22:32:46.425Z,99027.75
2023-03-10T22:35:14.261Z,99024.59
2023-03-10T22:37:42.882Z,99033.41
2023-03-10T22:40:16.113Z,99046.28
2023-03-10T22:42:44.772Z,99048.97
2023-03-10T22:45:18.320Z,99060.25
2023-03-10T22:47:46.233Z,99057.06
2023-03-10T22:50:16.019Z,99069.44
2023-03-10T22:52:43.913Z,99076.91
2023-03-10T22:55:16.224Z,99089.06
2023-03-10T22:57:44.186Z,99098.88
2023-03-10T23:00:20.242Z,99114.97
2023-03-10T23:02:49.369Z,99113.47
2023-03-10T23:05:18.115Z,99131.59
2023-03-10T23:07:48.554Z,99134.81
2023-03-10T23:10:20.287Z,99144.28
2023-03-10T23:12:49.141Z,99152.88
2023-03-10T23:15:24.806Z,99156.72
2023-03-10T23:17:53.800Z,99172.72
2023-03-10T23:20:23.917Z,99183.22
2023-03-10T23:22:51.633Z,99185.75
2023-03-10T23:25:26.573Z,99200.56
2023-03-10T23:27:56.104Z,99202.72
2023-03-10T23:30:26.065Z,99212.72
2023-03-10T23:32:55.469Z,99219.22
2023-03-10T23:35:26.621Z,99226.34
2023-03-10T23:37:56.423Z,99234.03
2023-03-10T23:40:28.784Z,99239.81
2023-03-10T23:42:58.608Z,99242.50
2023-03-10T23:45:31.181Z,99252.84
2023-03-10T23:48:01.371Z,99260.84
2023-03-10T23:50:33.787Z,99264.41
2023-03-10T23:53:02.336Z,99285.59
2023-03-10T23:55:33.997Z,99283.53
2023-03-10T23:58:02.161Z,99290.19
